Time,TemperatureF,DewpointF,PressureIn,WindDirection,WindDirectionDegrees,WindSpeedMPH,WindSpeedGustMPH,Humidity,HourlyPrecipIn,Conditions,Clouds,dailyrainin,SoftwareType,DateUTC
2013-09-21 00:00:00,67.7,65.6,29.76,WNW,293,4.0,8.0,93,0.01,,---,0.12,VWS V14.01,2013-09-21 04:00:00,
2013-09-21 00:30:00,65.6,62.0,29.76,WNW,288,5.0,13.0,88,0.00,,---,0.00,VWS V14.01,2013-09-21 04:30:00,
2013-09-21 01:00:00,64.5,60.2,29.76,North,358,6.0,11.0,86,0.00,,---,0.00,VWS V14.01,2013-09-21 05:00:00,
2013-09-21 01:30:00,63.8,58.9,29.75,NNW,342,6.0,13.0,84,0.00,,---,0.00,VWS V14.01,2013-09-21 05:30:00,
2013-09-21 02:00:00,63.3,59.0,29.75,NW,308,4.0,9.0,86,0.00,,---,0.00,VWS V14.01,2013-09-21 06:00:00,
2013-09-21 02:30:00,62.5,58.9,29.75,NW,308,5.0,7.0,88,0.00,,---,0.00,VWS V14.01,2013-09-21 06:30:00,
2013-09-21 03:00:00,62.0,58.1,29.75,WNW,289,3.0,8.0,87,0.00,,---,0.00,VWS V14.01,2013-09-21 07:00:00,
2013-09-21 03:30:00,61.1,57.2,29.74,WNW,300,5.0,8.0,87,0.00,,---,0.00,VWS V14.01,2013-09-21 07:30:00,
2013-09-21 04:00:00,60.1,57.2,29.74,WNW,288,4.0,6.0,90,0.00,,---,0.00,VWS V14.01,2013-09-21 08:00:00,
2013-09-21 04:30:00,59.4,56.5,29.73,WNW,300,5.0,6.0,90,0.00,,---,0.00,VWS V14.01,2013-09-21 08:30:00,
2013-09-21 05:00:00,59.1,56.5,29.73,WNW,288,3.0,7.0,91,0.00,,---,0.00,VWS V14.01,2013-09-21 09:00:00,
2013-09-21 05:30:00,58.4,56.1,29.72,WNW,283,4.0,6.0,92,0.00,,---,0.00,VWS V14.01,2013-09-21 09:30:00,
2013-09-21 06:00:00,57.8,55.8,29.72,WNW,287,6.0,6.0,93,0.00,,---,0.00,VWS V14.01,2013-09-21 10:00:00,
2013-09-21 06:30:00,57.3,55.6,29.73,WNW,296,2.0,6.0,94,0.00,,---,0.00,VWS V14.01,2013-09-21 10:30:00,
2013-09-21 07:00:00,56.8,55.4,29.74,WNW,286,4.0,7.0,95,0.00,,---,0.00,VWS V14.01,2013-09-21 11:00:00,
2013-09-21 07:30:00,56.7,55.3,29.74,WNW,291,3.0,7.0,95,0.00,,---,0.00,VWS V14.01,2013-09-21 11:30:00,
2013-09-21 08:00:00,56.9,55.5,29.75,NW,311,4.0,7.0,95,0.00,,---,0.00,VWS V14.01,2013-09-21 12:00:00,
2013-09-21 08:30:00,57.0,55.6,29.75,West,276,4.0,7.0,95,0.00,,---,0.00,VWS V14.01,2013-09-21 12:30:00,
2013-09-21 09:00:00,57.6,56.2,29.76,WNW,284,4.0,9.0,95,0.00,,---,0.00,VWS V14.01,2013-09-21 13:00:00,
2013-09-21 09:30:00,59.3,57.3,29.76,WNW,301,7.0,9.0,93,0.00,,---,0.00,VWS V14.01,2013-09-21 13:30:00,
2013-09-21 10:00:00,60.6,58.0,29.77,NW,309,6.0,8.0,91,0.00,,---,0.00,VWS V14.01,2013-09-21 14:00:00,
2013-09-21 10:30:00,60.6,58.0,29.78,North,8,4.0,12.0,91,0.01,,---,0.01,VWS V14.01,2013-09-21 14:30:00,
2013-09-21 11:00:00,59.1,56.5,29.78,WNW,294,4.0,11.0,91,0.03,,---,0.03,VWS V14.01,2013-09-21 15:00:00,
2013-09-21 11:30:00,61.0,56.1,29.78,NNW,343,9.0,15.0,84,0.03,,---,0.03,VWS V14.01,2013-09-21 15:30:00,
2013-09-21 12:00:00,62.5,55.6,29.79,NNE,32,4.0,15.0,78,0.02,,---,0.03,VWS V14.01,2013-09-21 16:00:00,
2013-09-21 12:30:00,63.6,55.5,29.79,WNW,287,7.0,15.0,75,0.00,,---,0.03,VWS V14.01,2013-09-21 16:30:00,
2013-09-21 13:00:00,64.2,54.2,29.79,North,6,5.0,15.0,70,0.00,,---,0.03,VWS V14.01,2013-09-21 17:00:00,
2013-09-21 13:30:00,64.8,53.6,29.79,NNE,13,4.0,13.0,67,0.00,,---,0.03,VWS V14.01,2013-09-21 17:30:00,
2013-09-21 14:00:00,66.3,53.8,29.79,NW,304,5.0,16.0,64,0.00,,---,0.03,VWS V14.01,2013-09-21 18:00:00,
2013-09-21 14:30:00,66.0,54.3,29.79,NW,306,9.0,17.0,66,0.00,,---,0.03,VWS V14.01,2013-09-21 18:30:00,
2013-09-21 15:00:00,65.8,54.1,29.79,NW,323,7.0,18.0,66,0.00,,---,0.03,VWS V14.01,2013-09-21 19:00:00,
2013-09-21 15:30:00,65.8,56.2,29.80,NW,314,6.0,17.0,71,0.00,,---,0.03,VWS V14.01,2013-09-21 19:30:00,
2013-09-21 16:00:00,65.9,53.8,29.80,NW,321,8.0,17.0,65,0.00,,---,0.03,VWS V14.01,2013-09-21 20:00:00,
2013-09-21 16:30:00,66.5,53.1,29.80,NNW,347,15.0,17.0,62,0.00,,---,0.03,VWS V14.01,2013-09-21 20:30:00,
2013-09-21 17:00:00,64.5,52.9,29.81,NW,319,9.0,16.0,66,0.00,,---,0.03,VWS V14.01,2013-09-21 21:00:00,
2013-09-21 17:30:00,64.1,52.9,29.82,NW,314,13.0,19.0,67,0.00,,---,0.03,VWS V14.01,2013-09-21 21:30:00,
2013-09-21 18:00:00,63.7,52.1,29.83,NNE,18,10.0,18.0,66,0.00,,---,0.03,VWS V14.01,2013-09-21 22:00:00,
2013-09-21 18:30:00,62.7,52.4,29.83,NNW,330,9.0,18.0,69,0.00,,---,0.03,VWS V14.01,2013-09-21 22:30:00,
2013-09-21 19:00:00,62.1,51.0,29.84,NNE,23,5.0,15.0,67,0.00,,---,0.03,VWS V14.01,2013-09-21 23:00:00,
2013-09-21 19:30:00,60.8,50.6,29.84,NNE,33,1.0,13.0,69,0.00,,---,0.03,VWS V14.01,2013-09-21 23:30:00,
2013-09-21 20:00:00,58.5,50.2,29.84,NNE,16,2.0,8.0,74,0.00,,---,0.03,VWS V14.01,2013-09-22 00:00:00,
2013-09-21 20:30:00,56.7,49.6,29.85,NE,56,1.0,6.0,77,0.00,,---,0.03,VWS V14.01,2013-09-22 00:30:00,
2013-09-21 21:00:00,55.9,49.8,29.86,North,4,0.0,2.0,80,0.00,,---,0.03,VWS V14.01,2013-09-22 01:00:00,
2013-09-21 21:30:00,57.1,51.0,29.87,NNW,341,3.0,5.0,80,0.00,,---,0.03,VWS V14.01,2013-09-22 01:30:00,
2013-09-21 22:00:00,55.4,51.3,29.87,WSW,239,2.0,5.0,86,0.00,,---,0.03,VWS V14.01,2013-09-22 02:00:00,
2013-09-21 22:30:00,53.7,49.9,29.87,NE,51,0.0,3.0,87,0.00,,---,0.03,VWS V14.01,2013-09-22 02:30:00,
2013-09-21 23:00:00,51.4,48.9,29.88,ESE,113,0.0,2.0,91,0.00,,---,0.03,VWS V14.01,2013-09-22 03:00:00,
2013-09-21 23:30:00,51.6,49.7,29.89,ESE,113,0.0,0.0,93,0.00,,---,0.03,VWS V14.01,2013-09-22 03:30:00,